»·PEaware :: N1718G KSNA-KSBP

N1718G :: KSNA-KSBP

FLIGHT INFORMATION

Flight Status: Arrived
Operator: Privately registered:
United States
More flights under this callsign
Pilot: Spencer M. (27733)
Aircraft: BEECH AIRCRAFT BONANZA
(BE35)
More flights by this aircraft type
Origin: KSNA John Wayne-Orange Co
United States
Destination: KSBP San Luis Co Regl
United States
More flights between these airports :: More routes between these airports
Route: +SLI V23 LAX V299 VTU VTU282 KWANG GVO
File this flight plan on PilotEdge
Remarks:
Altitude:
(Current/Filed)
8,000ft
Speed:
(Current/Filed)
160kts
Departed: 01-Aug-20 07:30 PM
Arrived: 01-Aug-20 08:42 PM
Distance/Time
Traveled:
166nm/1:12
Distance/Time
To Go:
Arrived

Flight Plot

Page will automatically refresh every two minutes.

Flight plan parsing failed; only flown route is shown


Map Options




Map Legend


Flown Route
Filed Route
Departure Airport
Arrival Airport
Navaid (VOR, NDB)
Fix

Horizontal Profiles

Position Reports

Time Latitude Longitude Heading Altitude Ground
Speed
01-Aug-20 18:56 33.675434 -117.871590 220 59ft 0kts
01-Aug-20 18:57 33.675434 -117.871590 220 59ft 0kts
01-Aug-20 18:58 33.675434 -117.871590 220 59ft 0kts
01-Aug-20 18:59 33.675434 -117.871590 220 59ft 0kts
01-Aug-20 19:00 33.675434 -117.871590 220 59ft 0kts
01-Aug-20 19:00 33.675434 -117.871590 220 59ft 0kts
01-Aug-20 19:02 33.675434 -117.871590 220 59ft 0kts
01-Aug-20 19:03 33.675434 -117.871590 220 59ft 0kts
01-Aug-20 19:03 33.675434 -117.871590 220 59ft 0kts
01-Aug-20 19:05 33.675434 -117.871590 220 59ft 0kts
01-Aug-20 19:06 33.675434 -117.871590 220 59ft 0kts
01-Aug-20 19:06 33.675434 -117.871590 220 59ft 0kts
01-Aug-20 19:07 33.675434 -117.871590 220 59ft 0kts
01-Aug-20 19:09 33.675434 -117.871590 220 59ft 0kts
01-Aug-20 19:13 33.675434 -117.871590 220 59ft 0kts
01-Aug-20 19:15 33.675436 -117.871588 220 60ft 0kts
01-Aug-20 19:16 33.675436 -117.871588 220 60ft 0kts
01-Aug-20 19:17 33.675418 -117.871605 214 60ft 0kts
01-Aug-20 19:18 33.675727 -117.870303 28 60ft 11kts
01-Aug-20 19:19 33.676893 -117.869107 346 60ft 0kts
01-Aug-20 19:20 33.676893 -117.869107 346 60ft 0kts
01-Aug-20 19:21 33.676893 -117.869107 346 60ft 0kts
01-Aug-20 19:22 33.676893 -117.869107 346 60ft 0kts
01-Aug-20 19:23 33.676893 -117.869107 346 60ft 0kts
01-Aug-20 19:24 33.676893 -117.869107 346 60ft 0kts
01-Aug-20 19:25 33.679511 -117.867999 15 60ft 18kts
01-Aug-20 19:26 33.681186 -117.866403 115 59ft 0kts
01-Aug-20 19:27 33.681183 -117.866397 115 59ft 0kts
01-Aug-20 19:28 33.681183 -117.866397 115 59ft 0kts
01-Aug-20 19:29 33.678793 -117.866863 209 60ft 60kts
01-Aug-20 19:30 33.660375 -117.885593 244 943ft 95kts
01-Aug-20 19:31 33.648315 -117.913822 241 1980ft 102kts
01-Aug-20 19:32 33.633291 -117.948156 241 2962ft 129kts
01-Aug-20 19:33 33.616214 -117.986886 242 3947ft 131kts
01-Aug-20 19:34 33.599248 -118.024751 242 4880ft 128kts
01-Aug-20 19:35 33.595368 -118.061699 323 5745ft 136kts
01-Aug-20 19:36 33.628598 -118.090060 315 6027ft 162kts
01-Aug-20 19:37 33.663553 -118.127500 313 6030ft 172kts
01-Aug-20 19:38 33.698804 -118.166877 313 6031ft 173kts
01-Aug-20 19:39 33.734084 -118.206600 313 6028ft 173kts
01-Aug-20 19:40 33.769170 -118.246206 313 6007ft 173kts
01-Aug-20 19:41 33.804082 -118.285718 313 6000ft 171kts
01-Aug-20 19:42 33.838569 -118.324756 314 5998ft 169kts
01-Aug-20 19:43 33.872773 -118.363427 314 6000ft 168kts
01-Aug-20 19:44 33.906914 -118.402138 313 6001ft 168kts
01-Aug-20 19:45 33.936282 -118.444885 291 6003ft 166kts
01-Aug-20 19:46 33.953712 -118.496583 289 6005ft 166kts
01-Aug-20 19:47 33.970469 -118.548736 288 6007ft 167kts
01-Aug-20 19:48 33.987174 -118.601136 288 6007ft 168kts
01-Aug-20 19:49 34.003880 -118.653684 287 6007ft 168kts
01-Aug-20 19:50 34.020721 -118.706764 287 6007ft 170kts
01-Aug-20 19:51 34.037649 -118.760297 286 6005ft 170kts
01-Aug-20 19:52 34.052426 -118.814622 284 6003ft 171kts
01-Aug-20 19:53 34.067031 -118.869169 284 6004ft 170kts
01-Aug-20 19:54 34.081547 -118.923509 285 6005ft 170kts
01-Aug-20 19:55 34.096062 -118.977950 285 6006ft 169kts
01-Aug-20 19:56 34.110471 -119.032096 285 6006ft 169kts
01-Aug-20 19:57 34.129744 -119.084005 293 6004ft 170kts
01-Aug-20 19:58 34.151046 -119.135077 294 5985ft 170kts
01-Aug-20 19:59 34.172386 -119.186037 294 5982ft 169kts
01-Aug-20 20:00 34.193562 -119.236653 295 5981ft 168kts
01-Aug-20 20:01 34.214645 -119.287116 295 5980ft 168kts
01-Aug-20 20:02 34.235660 -119.337413 295 5980ft 167kts
01-Aug-20 20:03 34.256664 -119.387776 295 5980ft 167kts
01-Aug-20 20:04 34.277622 -119.438097 294 5981ft 168kts
01-Aug-20 20:05 34.298754 -119.488929 294 5982ft 169kts
01-Aug-20 20:06 34.319442 -119.540540 292 5984ft 171kts
01-Aug-20 20:07 34.339835 -119.593092 291 5986ft 174kts
01-Aug-20 20:08 34.360425 -119.646308 291 5988ft 176kts
01-Aug-20 20:09 34.381336 -119.700429 290 5990ft 178kts
01-Aug-20 20:10 34.402396 -119.754997 290 5991ft 179kts
01-Aug-20 20:11 34.423507 -119.809777 290 5991ft 179kts
01-Aug-20 20:12 34.444525 -119.864409 290 5993ft 178kts
01-Aug-20 20:13 34.465351 -119.918682 291 6002ft 177kts
01-Aug-20 20:14 34.486005 -119.972521 291 6011ft 175kts
01-Aug-20 20:15 34.506543 -120.026177 291 6021ft 174kts
01-Aug-20 20:16 34.526823 -120.079221 292 6029ft 173kts
01-Aug-20 20:17 34.564980 -120.116463 322 6036ft 178kts
01-Aug-20 20:18 34.606414 -120.149077 323 6036ft 178kts
01-Aug-20 20:19 34.648139 -120.181489 323 6036ft 178kts
01-Aug-20 20:20 34.689799 -120.213838 323 6036ft 178kts
01-Aug-20 20:21 34.731356 -120.246145 323 6034ft 174kts
01-Aug-20 20:22 34.771367 -120.277035 330 6029ft 170kts
01-Aug-20 20:23 34.820317 -120.270774 5 6037ft 183kts
01-Aug-20 20:24 34.871268 -120.261063 5 5991ft 185kts
01-Aug-20 20:25 34.922856 -120.251502 5 5730ft 189kts
01-Aug-20 20:26 34.975048 -120.241768 6 5448ft 190kts
01-Aug-20 20:27 35.027592 -120.231966 7 5059ft 193kts
01-Aug-20 20:28 35.078714 -120.222371 6 4991ft 177kts
01-Aug-20 20:29 35.116556 -120.240183 279 4693ft 169kts
01-Aug-20 20:30 35.118821 -120.296232 270 4254ft 161kts
01-Aug-20 20:31 35.119550 -120.350627 270 3893ft 157kts
01-Aug-20 20:32 35.120228 -120.403030 270 3891ft 152kts
01-Aug-20 20:33 35.127486 -120.452521 304 3708ft 151kts
01-Aug-20 20:34 35.151243 -120.493668 300 3229ft 145kts
01-Aug-20 20:35 35.170147 -120.527525 306 2586ft 94kts
01-Aug-20 20:36 35.185510 -120.550411 308 1687ft 81kts
01-Aug-20 20:37 35.198840 -120.571279 306 1154ft 75kts
01-Aug-20 20:38 35.210622 -120.593141 297 1153ft 79kts
01-Aug-20 20:39 35.222444 -120.614694 303 711ft 74kts
01-Aug-20 20:40 35.234057 -120.635265 304 241ft 68kts
01-Aug-20 20:41 35.237829 -120.640252 70 216ft 6kts

Navigation Log

Ident Type
Flight plan parsing failed, navigation log unavailable